Time;durP1;ratioP1;P1;durP2;ratioP2;P2;SDS_P1;SDS_P2;PMS_P1;PMS_P2;Temp;Humidity;BMP_temperature;BMP_pressure;BME280_temperature;BME280_humidity;BME280_pressure;Samples;Min_cycle;Max_cycle;Signal;HPM_P1;HPM_P2
2022/01/18 00:00:37;;;;;;;2.27;0.70;;;;;;;2.42;71.26;101131.09;10504128;28;20195;-66
2022/01/18 00:05:50;;;;;;;7.40;1.20;;;;;;;2.38;71.68;101133.50;10504044;28;20724;-64
2022/01/18 00:10:53;;;;;;;5.67;1.20;;;;;;;2.38;71.30;101159.13;10503660;28;20238;-66
2022/01/18 00:16:10;;;;;;;3.97;1.10;;;;;;;2.25;72.14;101149.28;10503470;28;20189;-67
2022/01/18 00:21:24;;;;;;;3.97;1.00;;;;;;;2.36;72.02;101168.44;10503256;28;20536;-62
2022/01/18 00:26:30;;;;;;;7.80;1.20;;;;;;;2.38;71.89;101163.41;10503121;28;20212;-69
2022/01/18 00:37:23;;;;;;;3.93;1.13;;;;;;;2.47;71.73;101165.41;10502893;28;20281;-69
2022/01/18 00:42:26;;;;;;;5.67;1.17;;;;;;;2.38;72.86;101171.94;10502335;28;20230;-66
2022/01/18 00:47:31;;;;;;;5.37;1.17;;;;;;;2.38;72.62;101197.53;10502458;28;20230;-64
2022/01/18 00:52:39;;;;;;;5.40;1.23;;;;;;;2.46;72.92;101187.59;10501999;28;20223;-64
2022/01/18 00:57:42;;;;;;;3.80;1.00;;;;;;;2.36;73.35;101199.16;10501795;28;20277;-64
2022/01/18 01:02:47;;;;;;;9.90;1.70;;;;;;;2.30;74.00;101219.47;10501539;28;20220;-68
2022/01/18 01:07:51;;;;;;;4.33;1.20;;;;;;;2.38;73.69;101218.03;10501116;28;20246;-65
2022/01/18 01:13:06;;;;;;;8.13;1.40;;;;;;;2.42;73.48;101205.38;10501545;28;20311;-67
2022/01/18 01:18:20;;;;;;;7.27;1.60;;;;;;;2.22;73.94;101231.13;10501547;28;20705;-66
2022/01/18 01:45:09;;;;;;;9.00;2.43;;;;;;;1.95;76.58;101273.56;10500153;28;20219;-68
2022/01/18 01:50:18;;;;;;;9.50;2.67;;;;;;;1.64;76.91;101280.84;10500539;28;20228;-65
2022/01/18 01:55:23;;;;;;;8.40;2.47;;;;;;;1.69;77.67;101276.78;10500181;28;20725;-65
2022/01/18 02:00:26;;;;;;;6.93;2.43;;;;;;;1.59;77.78;101267.00;10500162;28;20235;-67
2022/01/18 02:05:30;;;;;;;7.03;2.00;;;;;;;1.58;78.09;101266.94;10500320;28;20247;-62
2022/01/18 02:10:34;;;;;;;10.97;2.73;;;;;;;1.47;78.29;101281.00;10500291;28;20237;-67
2022/01/18 02:15:42;;;;;;;8.80;2.80;;;;;;;1.35;79.26;101283.06;10499807;28;20220;-63
2022/01/18 02:26:08;;;;;;;8.60;2.97;;;;;;;1.19;80.24;101299.44;10499722;28;20544;-66
2022/01/18 02:31:11;;;;;;;9.30;2.60;;;;;;;1.15;80.99;101298.44;10499367;28;20224;-63
2022/01/18 02:36:16;;;;;;;7.93;2.00;;;;;;;1.10;81.48;101306.72;10499564;28;20228;-66
2022/01/18 02:41:24;;;;;;;6.70;2.30;;;;;;;0.94;82.24;101309.41;10499382;28;20216;-64
2022/01/18 02:46:28;;;;;;;8.27;3.10;;;;;;;0.88;83.43;101309.16;10499336;28;20226;-65
2022/01/18 02:51:33;;;;;;;8.53;3.03;;;;;;;0.84;83.74;101308.16;10499261;28;20307;-64
2022/01/18 02:56:41;;;;;;;8.53;2.93;;;;;;;0.65;85.31;101303.03;10502600;28;20681;-67
2022/01/18 03:07:08;;;;;;;7.40;2.47;;;;;;;0.70;85.58;101316.88;10506258;28;20231;-66
2022/01/18 03:12:14;;;;;;;9.10;2.20;;;;;;;0.66;85.64;101321.75;10506015;28;20226;-63
2022/01/18 03:17:17;;;;;;;10.53;3.30;;;;;;;0.61;86.81;101320.69;10505644;28;20730;-64
2022/01/18 03:22:22;;;;;;;10.40;2.90;;;;;;;0.40;88.96;101338.47;10505661;28;20758;-64
2022/01/18 03:32:46;;;;;;;9.23;2.73;;;;;;;0.43;88.94;101343.69;10505193;28;20238;-65
2022/01/18 03:37:51;;;;;;;9.53;3.27;;;;;;;0.48;88.80;101341.38;10504857;28;20214;-65
2022/01/18 03:42:56;;;;;;;6.80;2.53;;;;;;;0.41;89.08;101341.91;10504764;28;20684;-65
2022/01/18 03:48:03;;;;;;;11.70;3.63;;;;;;;0.42;89.52;101359.84;10504653;28;20216;-66
2022/01/18 03:53:10;;;;;;;8.83;3.43;;;;;;;0.33;90.87;101356.00;10504515;28;20308;-68
2022/01/18 03:58:13;;;;;;;7.47;2.23;;;;;;;0.41;90.21;101363.22;10504406;28;20295;-62
2022/01/18 04:03:17;;;;;;;10.50;2.77;;;;;;;0.40;90.30;101369.09;10504054;28;20216;-64
2022/01/18 04:08:22;;;;;;;8.30;2.43;;;;;;;0.39;90.75;101376.69;10502846;28;20232;-68
2022/01/18 04:13:26;;;;;;;7.00;2.40;;;;;;;0.35;90.64;101390.09;10503769;28;20220;-65
2022/01/18 04:18:34;;;;;;;8.03;2.10;;;;;;;0.28;92.46;101398.28;10503842;28;20715;-66
2022/01/18 04:29:01;;;;;;;9.00;3.07;;;;;;;0.36;92.17;101408.06;10502957;28;20219;-65
2022/01/18 04:34:04;;;;;;;6.17;1.87;;;;;;;0.33;92.55;101420.69;10502635;28;20671;-63
2022/01/18 04:39:08;;;;;;;6.33;2.17;;;;;;;0.41;92.71;101436.38;10502777;28;20215;-67
2022/01/18 04:48:24;;;;;;;5.30;1.80;;;;;;;0.52;92.48;101436.06;10502128;28;20228;-65
2022/01/18 04:49:44;;;;;;;8.17;2.50;;;;;;;0.60;93.12;101444.09;10502286;28;20216;-63
2022/01/18 04:54:58;;;;;;;8.07;2.30;;;;;;;0.67;92.64;101454.69;10501854;28;20223;-66
2022/01/18 05:00:01;;;;;;;8.97;2.60;;;;;;;0.71;92.30;101458.22;10501832;28;20658;-66
2022/01/18 05:05:05;;;;;;;10.67;2.27;;;;;;;0.74;92.55;101468.59;10501500;28;20223;-65
2022/01/18 05:10:10;;;;;;;7.60;2.40;;;;;;;0.77;92.71;101481.50;10501150;28;20228;-67
2022/01/18 05:15:36;;;;;;;8.00;2.03;;;;;;;0.74;93.12;101466.91;10501572;28;20250;-69
2022/01/18 05:21:08;;;;;;;8.00;2.10;;;;;;;0.77;93.72;101469.63;10501281;28;20216;-67
2022/01/18 05:26:06;;;;;;;7.73;2.10;;;;;;;0.83;92.82;101476.66;10500820;28;20540;-66
2022/01/18 05:31:09;;;;;;;8.00;1.97;;;;;;;0.75;93.77;101475.44;10500881;28;20230;-63
2022/01/18 05:36:12;;;;;;;8.33;2.20;;;;;;;0.82;93.71;101480.03;10500740;28;20224;-66
2022/01/18 05:41:17;;;;;;;11.20;2.40;;;;;;;0.76;93.92;101482.31;10500677;28;20224;-65
2022/01/18 05:46:26;;;;;;;11.37;3.10;;;;;;;0.71;94.71;101487.19;10501046;28;20232;-63
2022/01/18 05:51:30;;;;;;;7.07;1.80;;;;;;;0.67;95.28;101476.78;10500325;28;20292;-64
2022/01/18 05:56:35;;;;;;;7.27;2.00;;;;;;;0.62;95.46;101481.66;10500414;28;20325;-62
2022/01/18 06:01:47;;;;;;;9.10;1.70;;;;;;;0.44;96.58;101485.00;10500806;28;20216;-66
2022/01/18 06:06:53;;;;;;;7.80;1.80;;;;;;;0.53;97.17;101488.91;10499839;28;20235;-67
2022/01/18 06:11:58;;;;;;;7.83;2.43;;;;;;;0.55;97.26;101499.19;10500121;28;20658;-68
2022/01/18 06:17:01;;;;;;;6.97;1.70;;;;;;;0.55;97.65;101510.25;10499711;28;20222;-64
2022/01/18 06:22:05;;;;;;;10.17;1.73;;;;;;;0.59;97.18;101512.16;10499533;28;20224;-64
2022/01/18 06:27:11;;;;;;;9.40;2.00;;;;;;;0.53;98.14;101514.44;10500092;28;20234;-65
2022/01/18 06:32:14;;;;;;;5.90;1.57;;;;;;;0.56;98.73;101516.25;10503948;28;20324;-65
2022/01/18 06:37:17;;;;;;;7.97;1.73;;;;;;;0.61;98.55;101522.44;10507118;28;20561;-67
2022/01/18 06:42:24;;;;;;;7.60;1.63;;;;;;;0.63;98.71;101520.84;10506709;28;20216;-65
2022/01/18 06:47:28;;;;;;;8.27;2.03;;;;;;;0.64;98.87;101526.03;10506342;28;20222;-65
2022/01/18 06:52:31;;;;;;;6.80;1.73;;;;;;;0.64;99.23;101531.13;10505672;28;20307;-69
2022/01/18 06:57:35;;;;;;;9.80;2.20;;;;;;;0.70;99.46;101533.13;10506170;28;20215;-63
2022/01/18 07:02:39;;;;;;;4.57;1.50;;;;;;;0.66;99.57;101552.53;10505586;28;20220;-64
2022/01/18 07:07:46;;;;;;;9.53;2.40;;;;;;;0.60;100.00;101554.78;10505676;28;20279;-63
2022/01/18 07:12:50;;;;;;;8.03;2.40;;;;;;;0.71;100.00;101566.38;10505180;28;20232;-63
2022/01/18 07:17:54;;;;;;;8.93;2.30;;;;;;;0.81;100.00;101570.28;10465647;28;20217;-66
2022/01/18 07:22:57;;;;;;;8.57;1.77;;;;;;;0.81;100.00;101585.59;10480692;28;20246;-63
2022/01/18 07:28:02;;;;;;;8.23;1.77;;;;;;;0.85;100.00;101584.94;10486270;28;20546;-64
2022/01/18 07:33:06;;;;;;;7.03;1.80;;;;;;;0.91;100.00;101595.47;10477584;28;20216;-66
2022/01/18 07:38:12;;;;;;;7.97;2.17;;;;;;;1.05;99.71;101612.34;10504682;28;20221;-65
2022/01/18 07:43:19;;;;;;;8.63;2.07;;;;;;;1.10;99.03;101611.72;10502703;28;20220;-64
2022/01/18 07:48:23;;;;;;;7.83;1.83;;;;;;;1.19;98.74;101624.94;10504565;28;20226;-66
2022/01/18 07:53:27;;;;;;;5.10;1.90;;;;;;;1.18;99.20;101641.09;10502956;28;20231;-67
2022/01/18 07:58:31;;;;;;;9.70;2.17;;;;;;;1.26;98.96;101646.56;10503812;28;20259;-67
2022/01/18 08:03:34;;;;;;;7.00;2.03;;;;;;;1.38;98.42;101651.41;10503534;28;20224;-70
2022/01/18 08:08:39;;;;;;;6.93;1.90;;;;;;;1.46;98.27;101660.31;10503110;28;20319;-65
2022/01/18 08:13:47;;;;;;;26.33;12.63;;;;;;;1.58;98.48;101661.75;10502788;28;20713;-71
2022/01/18 08:18:51;;;;;;;7.90;2.10;;;;;;;1.64;97.91;101673.97;10503008;28;20272;-66
2022/01/18 08:23:55;;;;;;;7.97;1.93;;;;;;;1.66;98.15;101675.78;10502536;28;20244;-66
2022/01/18 08:29:00;;;;;;;12.17;1.80;;;;;;;1.92;97.83;101679.53;10502631;28;20219;-67
2022/01/18 08:34:03;;;;;;;6.83;2.10;;;;;;;2.06;96.77;101698.94;10488417;28;20220;-68
2022/01/18 08:39:07;;;;;;;5.93;1.50;;;;;;;2.03;97.21;101703.94;10460991;28;20221;-65
2022/01/18 08:44:12;;;;;;;7.97;2.50;;;;;;;2.14;97.21;101716.41;10460626;28;20730;-66
2022/01/18 08:49:15;;;;;;;8.57;1.90;;;;;;;2.21;97.16;101717.56;10461124;28;20684;-66
2022/01/18 08:54:19;;;;;;;5.83;1.70;;;;;;;2.26;97.19;101732.31;10459673;28;20248;-67
2022/01/18 08:59:24;;;;;;;5.50;1.57;;;;;;;2.41;96.37;101742.38;10460509;28;20208;-68
2022/01/18 09:04:27;;;;;;;7.30;2.00;;;;;;;2.65;95.19;101753.72;10473867;28;20563;-65
2022/01/18 09:09:30;;;;;;;8.23;2.30;;;;;;;3.07;93.50;101768.38;10500943;28;20572;-67
2022/01/18 09:14:35;;;;;;;8.60;1.83;;;;;;;3.37;89.77;101787.63;10488088;28;20216;-69
2022/01/18 09:19:38;;;;;;;7.50;2.20;;;;;;;3.27;88.97;101777.78;10459748;28;20291;-64
2022/01/18 09:24:42;;;;;;;8.87;2.30;;;;;;;3.15;90.42;101776.41;10458933;28;20292;-67
2022/01/18 09:29:46;;;;;;;6.40;1.90;;;;;;;3.17;89.96;101785.94;10459503;28;20299;-65
2022/01/18 09:34:49;;;;;;;8.47;2.23;;;;;;;3.17;89.43;101795.28;10471213;28;20228;-63
2022/01/18 09:39:53;;;;;;;37.83;17.60;;;;;;;3.24;88.45;101805.00;10500449;28;20188;-66
2022/01/18 09:44:59;;;;;;;9.80;3.17;;;;;;;3.35;88.21;101819.16;10500112;28;20596;-66
2022/01/18 09:50:04;;;;;;;7.77;2.50;;;;;;;3.44;89.00;101827.22;10500618;28;20203;-66
2022/01/18 09:55:09;;;;;;;11.67;2.87;;;;;;;3.66;87.96;101826.44;10487123;28;20574;-66
2022/01/18 10:00:15;;;;;;;7.37;2.73;;;;;;;3.61;87.80;101835.66;10459667;28;20197;-66
2022/01/18 10:05:24;;;;;;;9.07;2.67;;;;;;;3.79;87.34;101849.22;10460031;28;20280;-67
2022/01/18 10:10:39;;;;;;;9.73;3.30;;;;;;;3.94;85.97;101853.28;10467053;28;20192;-70
2022/01/18 10:21:12;;;;;;;10.83;3.77;;;;;;;4.39;82.81;101849.97;10537186;27;20583;-66
2022/01/18 10:26:25;;;;;;;7.07;2.67;;;;;;;4.73;82.16;101850.41;10536299;28;20263;-64
2022/01/18 10:31:35;;;;;;;10.50;2.40;;;;;;;5.17;79.89;101861.44;10536432;28;20222;-67
2022/01/18 10:36:52;;;;;;;7.03;2.40;;;;;;;5.70;78.01;101875.34;10535729;28;20295;-62
2022/01/18 10:41:57;;;;;;;8.17;2.00;;;;;;;6.10;74.21;101882.72;10535939;28;20195;-68
2022/01/18 10:47:00;;;;;;;11.63;3.37;;;;;;;6.65;72.11;101877.56;10535594;28;20195;-64
2022/01/18 10:52:07;;;;;;;8.13;2.47;;;;;;;7.12;69.18;101876.38;10535900;28;20208;-66
2022/01/18 10:57:12;;;;;;;9.17;2.77;;;;;;;7.75;68.31;101878.97;10535249;28;20295;-65
2022/01/18 11:02:18;;;;;;;11.97;5.13;;;;;;;8.20;65.88;101862.00;10535472;28;20283;-66
2022/01/18 11:07:25;;;;;;;6.47;2.03;;;;;;;8.07;65.52;101872.91;10535403;28;20252;-70
2022/01/18 11:12:30;;;;;;;8.17;2.80;;;;;;;8.04;64.90;101879.72;10534968;28;20196;-63
2022/01/18 11:17:39;;;;;;;9.67;2.23;;;;;;;8.35;64.47;101874.47;10534101;28;20241;-68
2022/01/18 11:22:44;;;;;;;7.87;2.20;;;;;;;8.84;61.59;101879.88;10534479;28;20195;-64
2022/01/18 11:27:50;;;;;;;8.97;2.47;;;;;;;9.11;60.78;101879.59;10532829;28;20278;-64
2022/01/18 11:32:56;;;;;;;7.47;2.27;;;;;;;9.33;60.51;101887.81;10505923;28;20196;-68
2022/01/18 11:38:06;;;;;;;6.33;2.20;;;;;;;9.22;60.41;101889.31;10505625;28;20218;-65
2022/01/18 11:43:09;;;;;;;6.30;2.90;;;;;;;9.26;59.08;101885.06;10505655;28;20681;-66
2022/01/18 11:48:16;;;;;;;6.30;1.90;;;;;;;9.72;59.75;101895.44;10505379;28;20192;-64
2022/01/18 11:53:44;;;;;;;6.07;2.20;;;;;;;9.81;59.88;101887.81;10505412;28;20227;-68
2022/01/18 11:59:13;;;;;;;8.00;2.33;;;;;;;10.22;57.65;101883.34;10504818;28;20226;-67
2022/01/18 12:04:54;;;;;;;7.17;2.33;;;;;;;9.93;56.68;101901.00;10505104;28;20197;-65
2022/01/18 12:09:59;;;;;;;9.13;2.50;;;;;;;9.83;57.46;101906.88;10504434;28;20220;-65
2022/01/18 12:15:03;;;;;;;7.20;2.80;;;;;;;10.14;56.32;101913.50;10504649;28;20199;-67
2022/01/18 12:20:08;;;;;;;7.53;3.13;;;;;;;10.31;55.93;101914.63;10503715;28;20694;-68
2022/01/18 12:25:28;;;;;;;8.43;2.50;;;;;;;9.58;57.15;101930.59;10504159;28;20184;-66
2022/01/18 12:30:43;;;;;;;9.03;2.30;;;;;;;8.82;59.47;101929.84;10503779;28;20298;-68
2022/01/18 12:35:46;;;;;;;10.03;2.67;;;;;;;8.28;61.22;101942.41;10504222;28;20232;-68
2022/01/18 12:40:53;;;;;;;10.47;2.57;;;;;;;7.79;62.45;101947.13;10502170;28;20711;-68
2022/01/18 12:45:57;;;;;;;8.50;2.67;;;;;;;7.14;64.02;101957.31;10502960;28;20192;-69
2022/01/18 12:51:07;;;;;;;6.90;2.63;;;;;;;6.44;66.65;101973.22;10502509;28;20528;-68
2022/01/18 12:56:12;;;;;;;7.90;2.50;;;;;;;6.34;67.60;101966.00;10502638;28;20200;-68
2022/01/18 13:01:17;;;;;;;25.00;11.60;;;;;;;6.15;69.10;101973.06;10502214;28;20220;-66
2022/01/18 13:06:23;;;;;;;11.13;3.03;;;;;;;6.08;69.92;101972.00;10502312;28;20192;-69
2022/01/18 13:11:29;;;;;;;11.00;3.10;;;;;;;5.97;70.13;101977.63;10501836;28;20220;-67
2022/01/18 13:27:24;;;;;;;9.03;3.07;;;;;;;5.48;73.18;101993.00;10464092;28;20230;-67
2022/01/18 13:32:33;;;;;;;12.73;3.33;;;;;;;5.37;73.55;102005.47;10501452;28;20637;-68
2022/01/18 13:37:38;;;;;;;18.57;8.90;;;;;;;5.24;75.13;102016.16;10501099;28;20230;-73
2022/01/18 13:42:45;;;;;;;9.67;3.30;;;;;;;5.21;74.86;102015.16;10501245;28;20222;-69
2022/01/18 13:47:50;;;;;;;9.70;3.17;;;;;;;5.19;76.16;102016.78;10500888;28;20216;-67
2022/01/18 13:52:58;;;;;;;10.17;3.17;;;;;;;5.07;77.43;102013.75;10500190;28;20247;-66
2022/01/18 13:58:04;;;;;;;14.83;3.20;;;;;;;5.08;77.07;102021.53;10498890;28;20300;-64
2022/01/18 14:03:07;;;;;;;8.33;3.00;;;;;;;5.09;76.10;102035.28;10499950;28;20203;-64
2022/01/18 14:08:11;;;;;;;11.67;3.10;;;;;;;4.90;76.88;102050.81;10500009;28;20353;-70
2022/01/18 14:13:30;;;;;;;7.80;3.17;;;;;;;4.79;78.39;102047.81;10499603;28;20266;-67
2022/01/18 14:18:50;;;;;;;8.77;3.40;;;;;;;4.53;80.02;102049.31;10499737;28;20241;-69
2022/01/18 14:24:11;;;;;;;13.53;3.57;;;;;;;4.44;80.32;102050.63;10499483;28;20219;-68
2022/01/18 14:29:16;;;;;;;11.87;3.07;;;;;;;4.22;82.43;102069.41;10499375;28;20224;-69
2022/01/18 14:34:28;;;;;;;13.33;5.43;;;;;;;4.08;84.18;102080.78;10499799;28;20202;-74
2022/01/18 14:39:31;;;;;;;12.33;4.53;;;;;;;4.17;83.20;102070.03;10499285;28;20220;-65
2022/01/18 14:44:58;;;;;;;8.30;3.30;;;;;;;4.11;83.50;102073.19;10499589;28;20533;-69
2022/01/18 14:50:02;;;;;;;10.03;3.47;;;;;;;3.99;84.31;102074.34;10499264;28;20559;-66
2022/01/18 14:55:07;;;;;;;13.57;2.97;;;;;;;3.82;84.85;102073.63;10499153;28;20188;-66
2022/01/18 15:00:17;;;;;;;11.67;3.00;;;;;;;3.77;85.58;102080.25;10499376;28;20216;-69
2022/01/18 15:05:21;;;;;;;9.70;3.70;;;;;;;3.54;86.46;102092.03;10502833;28;20256;-66
2022/01/18 15:10:25;;;;;;;13.57;3.63;;;;;;;3.40;87.98;102094.75;10506601;28;20200;-66
2022/01/18 15:15:30;;;;;;;8.87;3.67;;;;;;;3.20;89.42;102087.84;10506612;28;20656;-68
2022/01/18 15:20:34;;;;;;;20.27;8.87;;;;;;;3.17;90.40;102097.97;10505568;28;20236;-67
2022/01/18 15:25:41;;;;;;;11.47;4.33;;;;;;;3.15;91.52;102092.75;10506099;28;20200;-68
2022/01/18 15:30:47;;;;;;;28.60;13.30;;;;;;;3.04;91.44;102101.63;10505996;28;20200;-64
2022/01/18 15:35:50;;;;;;;8.23;3.20;;;;;;;3.00;91.68;102109.97;10506134;28;20193;-67
2022/01/18 15:40:53;;;;;;;13.10;3.70;;;;;;;3.01;91.63;102127.13;10505092;28;20220;-65
2022/01/18 15:46:00;;;;;;;10.77;3.53;;;;;;;2.90;92.61;102123.16;10505608;28;20303;-64
2022/01/18 15:51:04;;;;;;;14.60;3.90;;;;;;;2.74;94.45;102119.78;10505094;28;20230;-67
2022/01/18 15:56:08;;;;;;;11.17;4.47;;;;;;;2.63;96.13;102116.69;10504685;28;20213;-68
2022/01/18 16:01:13;;;;;;;13.37;4.00;;;;;;;2.74;95.07;102118.09;10153588;28;10000016;-61
2022/01/18 16:06:16;;;;;;;10.07;3.40;;;;;;;2.64;96.52;102120.13;10474802;28;20216;-63
2022/01/18 16:11:22;;;;;;;13.30;4.37;;;;;;;2.42;97.54;102136.09;10483296;28;20216;-65
2022/01/18 16:16:26;;;;;;;9.80;3.27;;;;;;;2.51;97.52;102141.69;10490449;28;20216;-62
2022/01/18 16:21:30;;;;;;;12.83;3.83;;;;;;;2.51;97.78;102141.69;10494110;28;20300;-62
2022/01/18 16:26:33;;;;;;;9.20;3.33;;;;;;;2.60;97.30;102141.28;10495150;28;20748;-66
2022/01/18 16:31:40;;;;;;;11.30;4.20;;;;;;;2.71;95.72;102145.25;10500077;28;20595;-65
2022/01/18 16:36:43;;;;;;;12.17;4.00;;;;;;;2.57;96.59;102143.69;10499660;28;20213;-67
2022/01/18 16:41:48;;;;;;;9.73;3.27;;;;;;;2.48;97.67;102149.22;10500385;28;20553;-67
2022/01/18 16:46:52;;;;;;;23.67;10.33;;;;;;;2.52;98.18;102145.13;10499979;28;20216;-68
2022/01/18 16:51:57;;;;;;;10.60;3.93;;;;;;;2.44;98.29;102143.84;10499222;28;20269;-63
2022/01/18 16:57:01;;;;;;;19.03;4.17;;;;;;;2.48;98.40;102151.78;10497437;28;20730;-67
2022/01/18 17:02:06;;;;;;;18.00;4.53;;;;;;;2.45;98.72;102166.13;10509733;28;20284;-67
2022/01/18 17:07:09;;;;;;;12.27;4.00;;;;;;;2.32;99.09;102155.25;10541292;28;20239;-64
2022/01/18 17:12:12;;;;;;;11.23;4.83;;;;;;;2.40;98.82;102139.41;10541199;28;20223;-66
2022/01/18 17:17:17;;;;;;;13.73;4.23;;;;;;;2.24;99.48;102132.59;10540537;28;20426;-65
2022/01/18 17:22:20;;;;;;;11.40;4.10;;;;;;;2.21;100.00;102143.56;10519863;28;20228;-65
2022/01/18 17:27:23;;;;;;;11.10;5.13;;;;;;;2.09;100.00;102137.78;10498108;28;20220;-65
2022/01/18 17:32:28;;;;;;;14.83;5.30;;;;;;;2.00;100.00;102154.38;10485243;28;20273;-67
2022/01/18 17:37:31;;;;;;;13.83;5.60;;;;;;;2.09;100.00;102167.63;10469629;28;20734;-67
2022/01/18 17:42:35;;;;;;;19.07;6.20;;;;;;;2.21;100.00;102161.47;10482792;28;20701;-64
2022/01/18 17:47:39;;;;;;;24.13;7.10;;;;;;;2.12;100.00;102171.25;10496232;28;20768;-65
2022/01/18 17:52:43;;;;;;;20.00;6.87;;;;;;;1.87;100.00;102178.44;10498153;28;20576;-66
2022/01/18 17:57:47;;;;;;;20.00;7.03;;;;;;;1.91;100.00;102182.03;10499828;28;20223;-65
2022/01/18 18:02:52;;;;;;;17.20;7.57;;;;;;;1.83;100.00;102181.59;10500582;28;20216;-65
2022/01/18 18:07:58;;;;;;;19.90;8.57;;;;;;;1.82;100.00;102192.66;10500515;28;20528;-63
2022/01/18 18:13:01;;;;;;;21.13;7.63;;;;;;;1.72;100.00;102198.09;10500520;28;20529;-66
2022/01/18 18:18:06;;;;;;;16.00;7.47;;;;;;;1.66;100.00;102178.94;10499730;28;20232;-62
2022/01/18 18:23:10;;;;;;;32.23;12.53;;;;;;;1.47;100.00;102184.72;10479119;28;20322;-64
2022/01/18 18:28:17;;;;;;;20.87;8.67;;;;;;;1.53;100.00;102182.53;10497063;28;20253;-66
2022/01/18 18:33:22;;;;;;;26.53;9.30;;;;;;;1.57;100.00;102169.06;10148097;27;10001255;-65
2022/01/18 18:38:32;;;;;;;26.77;11.17;;;;;;;1.41;100.00;102153.72;10539401;28;20503;-62
2022/01/18 18:43:41;;;;;;;27.33;10.27;;;;;;;1.25;100.00;102163.88;10517306;28;20216;-65
2022/01/18 18:48:46;;;;;;;24.57;11.13;;;;;;;1.30;100.00;102197.34;10506512;28;20503;-63
2022/01/18 18:53:49;;;;;;;31.20;13.37;;;;;;;1.50;100.00;102210.47;10507009;28;20529;-65
2022/01/18 18:59:17;;;;;;;28.17;14.30;;;;;;;1.52;100.00;102218.25;10507478;28;20279;-65
2022/01/18 19:04:22;;;;;;;28.50;13.43;;;;;;;1.63;100.00;102206.91;10507152;28;20202;-64
2022/01/18 19:09:25;;;;;;;29.50;12.83;;;;;;;1.63;100.00;102186.44;10506831;28;20202;-67
2022/01/18 19:14:32;;;;;;;31.77;13.53;;;;;;;1.54;100.00;102179.16;10506875;28;20290;-67
2022/01/18 19:19:37;;;;;;;25.27;13.40;;;;;;;1.48;100.00;102190.72;10506531;28;20307;-67
2022/01/18 19:24:41;;;;;;;29.23;12.93;;;;;;;1.55;100.00;102209.06;10506502;28;20638;-62
2022/01/18 19:29:44;;;;;;;27.33;13.30;;;;;;;1.47;100.00;102215.41;10506063;28;20362;-64
2022/01/18 19:34:48;;;;;;;24.73;12.07;;;;;;;1.57;100.00;102233.03;10505951;28;20315;-66
2022/01/18 19:39:51;;;;;;;27.40;11.23;;;;;;;1.71;100.00;102216.78;10505801;28;20269;-66
2022/01/18 19:44:55;;;;;;;26.27;10.93;;;;;;;1.86;100.00;102209.97;10505727;28;20749;-65
2022/01/18 19:50:00;;;;;;;26.00;9.70;;;;;;;1.75;100.00;102226.41;10504950;28;20220;-69
2022/01/18 19:55:05;;;;;;;25.17;10.80;;;;;;;1.81;100.00;102236.09;10505489;28;20534;-68
2022/01/18 20:00:10;;;;;;;27.63;11.27;;;;;;;1.68;100.00;102254.09;10505238;28;20682;-68
2022/01/18 20:05:15;;;;;;;29.10;13.13;;;;;;;1.71;100.00;102252.59;10505165;28;20216;-66
2022/01/18 20:10:19;;;;;;;33.77;15.23;;;;;;;1.74;100.00;102242.56;10504657;28;20299;-64
2022/01/18 20:15:22;;;;;;;28.30;14.17;;;;;;;1.59;100.00;102230.59;10504639;28;20211;-66
2022/01/18 20:20:27;;;;;;;29.37;16.93;;;;;;;1.56;100.00;102199.69;10504191;28;20258;-68
2022/01/18 20:25:32;;;;;;;36.60;16.23;;;;;;;1.43;100.00;102198.16;10504291;28;20238;-66
2022/01/18 20:30:35;;;;;;;35.50;15.97;;;;;;;1.50;100.00;102197.66;10504149;28;20224;-67
2022/01/18 20:35:40;;;;;;;34.53;15.80;;;;;;;1.49;100.00;102203.59;10503733;28;20220;-67
2022/01/18 20:40:44;;;;;;;38.47;16.20;;;;;;;1.24;100.00;102195.38;10503282;28;20220;-65
2022/01/18 20:45:47;;;;;;;37.37;16.17;;;;;;;1.24;100.00;102197.03;10503254;28;20219;-68
2022/01/18 20:50:52;;;;;;;34.93;16.33;;;;;;;1.24;100.00;102195.38;10502998;28;20687;-64
2022/01/18 20:55:56;;;;;;;33.87;15.50;;;;;;;1.31;100.00;102197.47;10502848;28;20234;-67
2022/01/18 21:00:59;;;;;;;31.17;14.50;;;;;;;1.37;100.00;102196.91;10501913;28;20232;-66
2022/01/18 21:06:04;;;;;;;30.07;14.00;;;;;;;1.37;100.00;102194.34;10502453;28;20269;-65
2022/01/18 21:11:09;;;;;;;32.57;15.03;;;;;;;1.11;100.00;102169.88;10502358;28;20249;-65
2022/01/18 21:16:12;;;;;;;33.27;15.00;;;;;;;1.08;100.00;102173.16;10502256;28;20212;-64
2022/01/18 21:21:17;;;;;;;25.40;13.00;;;;;;;0.94;100.00;102184.28;10502210;28;20224;-68
2022/01/18 21:26:21;;;;;;;35.43;15.00;;;;;;;1.15;100.00;102161.59;10501877;28;20215;-65
2022/01/18 21:31:24;;;;;;;33.73;14.73;;;;;;;0.99;100.00;102167.53;10501977;28;20259;-66
2022/01/18 21:36:29;;;;;;;33.03;14.33;;;;;;;1.10;100.00;102160.47;10501354;28;20228;-63
2022/01/18 21:41:33;;;;;;;32.80;14.80;;;;;;;1.02;100.00;102161.69;10501352;28;20220;-65
2022/01/18 21:46:36;;;;;;;33.40;15.23;;;;;;;0.80;100.00;102158.69;10501222;28;20224;-68
2022/01/18 21:51:41;;;;;;;35.60;15.13;;;;;;;0.85;100.00;102136.84;10499294;28;20212;-64
2022/01/18 21:56:44;;;;;;;31.97;13.83;;;;;;;1.09;100.00;102141.69;10497306;28;20295;-65
2022/01/18 22:01:48;;;;;;;35.10;16.23;;;;;;;1.03;100.00;102149.03;10497733;28;20231;-65
2022/01/18 22:06:53;;;;;;;30.87;14.77;;;;;;;0.97;100.00;102134.97;10498043;28;20361;-66
2022/01/18 22:11:56;;;;;;;33.63;14.90;;;;;;;1.13;100.00;102123.16;10497362;28;20302;-67
2022/01/18 22:16:59;;;;;;;29.80;14.07;;;;;;;1.16;100.00;102120.78;10497211;28;20228;-64
2022/01/18 22:22:04;;;;;;;34.50;15.67;;;;;;;1.02;100.00;102124.22;10497108;28;20226;-65
2022/01/18 22:27:07;;;;;;;34.70;13.87;;;;;;;0.98;100.00;102129.97;10497260;28;20276;-65
2022/01/18 22:32:11;;;;;;;30.20;14.10;;;;;;;1.07;100.00;102134.75;10497386;28;20196;-67
2022/01/18 22:37:15;;;;;;;36.60;16.73;;;;;;;0.97;100.00;102129.88;10496967;28;20192;-67
2022/01/18 22:42:19;;;;;;;31.13;14.80;;;;;;;0.89;100.00;102131.13;10496876;28;20269;-64
2022/01/18 22:47:22;;;;;;;36.23;15.80;;;;;;;0.70;100.00;102111.31;10497116;28;20215;-64
2022/01/18 22:52:27;;;;;;;35.37;15.20;;;;;;;0.83;100.00;102108.66;10172604;27;10000231;-67
2022/01/18 22:57:31;;;;;;;40.87;17.80;;;;;;;0.82;100.00;102113.69;10538762;28;20230;-65
2022/01/18 23:02:34;;;;;;;37.43;15.13;;;;;;;0.86;100.00;102123.28;10538267;28;20540;-67
2022/01/18 23:07:39;;;;;;;39.90;17.70;;;;;;;0.68;100.00;102112.00;10538416;28;20256;-67
2022/01/18 23:12:43;;;;;;;33.93;16.77;;;;;;;0.73;100.00;102115.69;10538538;28;20236;-67
2022/01/18 23:17:46;;;;;;;41.27;18.37;;;;;;;0.62;100.00;102104.00;10538801;28;20226;-69
2022/01/18 23:22:51;;;;;;;44.27;20.10;;;;;;;0.72;100.00;102112.28;10541338;28;20215;-67
2022/01/18 23:27:54;;;;;;;42.97;17.87;;;;;;;0.57;100.00;102105.44;10547045;28;20278;-65
2022/01/18 23:32:57;;;;;;;39.30;17.97;;;;;;;0.63;100.00;102108.31;10548808;28;20233;-67
2022/01/18 23:38:03;;;;;;;36.50;17.90;;;;;;;0.33;100.00;102109.09;10548629;28;20529;-64
2022/01/18 23:43:06;;;;;;;36.37;15.97;;;;;;;0.22;100.00;102112.69;10548395;28;20216;-64
2022/01/18 23:48:09;;;;;;;39.57;16.80;;;;;;;0.30;100.00;102102.13;10548249;28;20490;-68
2022/01/18 23:53:14;;;;;;;47.77;17.90;;;;;;;0.48;100.00;102076.78;10547895;28;20628;-64
2022/01/18 23:58:19;;;;;;;41.30;18.60;;;;;;;0.50;100.00;102080.31;10547937;28;20282;-67
